Time;durP1;ratioP1;P1;durP2;ratioP2;P2;SDS_P1;SDS_P2;PMS_P1;PMS_P2;Temp;Humidity;BMP_temperature;BMP_pressure;BME280_temperature;BME280_humidity;BME280_pressure;Samples;Min_cycle;Max_cycle;Signal;HPM_P1;HPM_P2
2021/07/14 00:03:35;;;;;;;3.95;2.72;;;15.70;99.90;;;;;;4978703;28;20054;-81
2021/07/14 00:06:26;;;;;;;4.78;2.80;;;15.70;99.90;;;;;;4967936;28;20618;-80
2021/07/14 00:08:52;;;;;;;3.65;3.22;;;15.70;99.90;;;;;;4949962;29;20118;-81
2021/07/14 00:11:59;;;;;;;5.50;3.03;;;15.70;99.90;;;;;;4931908;28;20057;-81
2021/07/14 00:17:00;;;;;;;3.47;2.92;;;15.70;99.90;;;;;;4967272;28;20043;-82
2021/07/14 00:22:07;;;;;;;3.75;3.03;;;15.60;99.90;;;;;;4956478;29;20182;-80
2021/07/14 00:24:56;;;;;;;5.53;2.55;;;15.60;99.90;;;;;;4969017;28;20041;-80
2021/07/14 00:27:49;;;;;;;6.15;2.70;;;15.60;99.90;;;;;;4961651;28;20042;-81
2021/07/14 00:30:23;;;;;;;2.92;2.70;;;15.60;99.90;;;;;;4939499;29;20066;-79
2021/07/14 00:33:32;;;;;;;2.65;2.45;;;15.60;99.90;;;;;;4957666;28;20105;-82
2021/07/14 00:36:43;;;;;;;3.50;2.50;;;15.60;99.90;;;;;;4970834;28;20046;-82
2021/07/14 00:39:09;;;;;;;2.63;2.42;;;15.60;99.90;;;;;;4975158;28;20034;-81
2021/07/14 00:41:34;;;;;;;2.75;2.55;;;15.60;99.90;;;;;;4954781;29;20039;-80
2021/07/14 00:44:00;;;;;;;2.75;2.55;;;15.70;99.90;;;;;;4930001;28;20038;-81
2021/07/14 00:47:13;;;;;;;2.00;1.90;;;15.60;99.90;;;;;;4977103;28;20489;-82
2021/07/14 00:49:38;;;;;;;2.33;2.13;;;15.60;99.90;;;;;;4978332;28;20046;-80
2021/07/14 00:52:05;;;;;;;2.47;2.13;;;15.60;99.90;;;;;;4921608;29;20047;-80
2021/07/14 00:54:31;;;;;;;2.25;2.05;;;15.50;99.90;;;;;;4936894;28;20062;-81
2021/07/14 00:57:21;;;;;;;2.22;2.08;;;15.60;99.90;;;;;;4931261;28;20039;-82
2021/07/14 01:00:27;;;;;;;2.30;2.10;;;15.50;99.90;;;;;;4959027;28;20043;-82
2021/07/14 01:02:53;;;;;;;2.33;2.10;;;15.60;99.90;;;;;;4968286;28;20049;-80
2021/07/14 01:05:24;;;;;;;3.13;2.00;;;15.60;99.90;;;;;;4953755;28;20133;-80
2021/07/14 01:07:58;;;;;;;2.30;2.10;;;15.60;99.90;;;;;;4973644;28;20039;-81
2021/07/14 01:10:32;;;;;;;1.95;1.80;;;15.50;99.90;;;;;;4957992;28;20034;-81
2021/07/14 01:13:07;;;;;;;2.35;1.70;;;15.50;99.90;;;;;;4958666;28;20405;-81
2021/07/14 01:16:03;;;;;;;2.00;1.65;;;15.50;99.90;;;;;;4977803;28;20037;-81
2021/07/14 01:18:48;;;;;;;2.15;1.95;;;15.50;99.90;;;;;;4975392;28;20042;-81
2021/07/14 01:21:19;;;;;;;3.03;2.00;;;15.40;99.90;;;;;;4958123;28;20023;-80
2021/07/14 01:23:54;;;;;;;2.00;1.90;;;15.50;99.90;;;;;;4971627;28;20509;-80
2021/07/14 01:26:44;;;;;;;;;;;15.50;99.90;;;;;;4966615;28;20031;-79
2021/07/14 01:29:14;;;;;;;2.20;2.00;;;15.50;99.90;;;;;;4960896;28;19918;-81
2021/07/14 01:31:43;;;;;;;2.20;2.00;;;15.40;99.90;;;;;;4974995;28;20072;-81
2021/07/14 01:34:11;;;;;;;2.10;1.90;;;15.40;99.90;;;;;;4961083;28;20045;-79
2021/07/14 01:36:38;;;;;;;2.20;2.00;;;15.40;99.90;;;;;;4933286;29;20043;-79
2021/07/14 01:39:05;;;;;;;2.03;1.92;;;15.40;99.90;;;;;;4961680;28;20167;-81
2021/07/14 01:41:38;;;;;;;2.20;2.03;;;15.40;99.90;;;;;;4971262;28;20030;-81
2021/07/14 01:44:05;;;;;;;2.00;1.70;;;15.30;99.90;;;;;;4958494;28;20027;-81
2021/07/14 01:46:33;;;;;;;3.65;2.33;;;15.30;99.90;;;;;;4960937;28;20116;-82
2021/07/14 01:49:12;;;;;;;2.67;2.25;;;15.30;99.90;;;;;;4968906;28;20126;-81
2021/07/14 01:52:30;;;;;;;2.00;1.90;;;15.30;99.90;;;;;;4961811;29;20294;-81
2021/07/14 01:55:23;;;;;;;4.50;2.45;;;15.30;99.90;;;;;;4939486;28;20050;-82
2021/07/14 01:57:51;;;;;;;2.17;1.98;;;15.20;99.90;;;;;;4968837;28;20042;-80
2021/07/14 02:00:45;;;;;;;3.00;2.40;;;15.20;99.90;;;;;;4967151;28;20041;-81
2021/07/14 02:06:00;;;;;;;3.97;2.95;;;15.20;99.90;;;;;;4977637;28;20050;-80
2021/07/14 02:08:26;;;;;;;2.97;2.40;;;15.20;99.90;;;;;;4967691;28;20039;-81
2021/07/14 02:11:35;;;;;;;2.50;2.30;;;15.20;99.90;;;;;;4954160;29;20092;-82
2021/07/14 02:14:01;;;;;;;2.35;2.15;;;15.20;99.90;;;;;;4964875;28;20063;-81
2021/07/14 02:16:30;;;;;;;2.67;2.38;;;15.20;99.90;;;;;;4963128;29;20118;-81
2021/07/14 02:18:58;;;;;;;2.70;2.50;;;15.20;99.90;;;;;;4974910;28;20057;-81
2021/07/14 02:21:24;;;;;;;2.53;2.33;;;15.20;99.90;;;;;;4965197;28;20058;-81
2021/07/14 02:23:50;;;;;;;3.10;2.72;;;15.10;99.90;;;;;;4981593;28;20054;-81
2021/07/14 02:26:16;;;;;;;2.78;2.58;;;15.10;99.90;;;;;;4977703;28;20038;-80
2021/07/14 02:28:43;;;;;;;11.25;3.03;;;15.10;99.90;;;;;;4979417;28;20058;-81
2021/07/14 02:31:09;;;;;;;3.28;2.95;;;15.00;99.90;;;;;;4976321;28;20035;-80
2021/07/14 02:33:35;;;;;;;4.80;2.72;;;15.10;99.90;;;;;;4960483;28;20399;-81
2021/07/14 02:36:03;;;;;;;2.78;2.58;;;15.00;99.90;;;;;;4945513;29;20035;-82
2021/07/14 02:38:36;;;;;;;3.13;2.88;;;15.00;99.90;;;;;;4966440;28;20038;-81
2021/07/14 02:41:07;;;;;;;3.40;3.00;;;14.90;99.90;;;;;;4982127;28;20027;-82
2021/07/14 02:44:01;;;;;;;2.90;2.58;;;14.90;99.90;;;;;;4978357;28;20050;-81
2021/07/14 02:46:36;;;;;;;3.20;2.90;;;14.90;99.90;;;;;;4956194;28;20045;-81
2021/07/14 02:49:09;;;;;;;3.10;2.80;;;14.90;99.90;;;;;;4969647;28;20058;-81
2021/07/14 02:52:08;;;;;;;3.30;2.83;;;14.90;99.90;;;;;;4971468;28;20050;-81
2021/07/14 02:54:56;;;;;;;3.47;2.83;;;14.90;99.90;;;;;;4979046;28;20045;-82
2021/07/14 02:57:26;;;;;;;14.00;3.45;;;14.80;99.90;;;;;;4973357;28;20046;-81
2021/07/14 02:59:55;;;;;;;3.17;2.90;;;14.90;99.90;;;;;;4952958;29;20031;-80
2021/07/14 03:02:21;;;;;;;3.00;2.63;;;14.80;99.90;;;;;;4974478;28;20031;-81
2021/07/14 03:04:53;;;;;;;3.45;2.88;;;14.80;99.90;;;;;;4978929;28;20038;-81
2021/07/14 03:07:23;;;;;;;3.00;2.72;;;14.70;99.90;;;;;;4962640;28;20031;-81
2021/07/14 03:10:03;;;;;;;2.95;2.67;;;14.70;99.90;;;;;;4946661;28;20043;-81
2021/07/14 03:12:30;;;;;;;3.13;2.83;;;14.60;99.90;;;;;;4959258;28;20479;-80
2021/07/14 03:15:01;;;;;;;3.28;2.97;;;14.60;99.90;;;;;;4955618;28;20067;-80
2021/07/14 03:17:31;;;;;;;3.50;3.20;;;14.60;99.90;;;;;;4968189;28;20058;-80
2021/07/14 03:19:58;;;;;;;3.55;2.88;;;14.60;99.90;;;;;;4974997;28;20125;-81
2021/07/14 03:22:55;;;;;;;4.88;3.28;;;14.70;99.90;;;;;;4979237;28;20032;-82
2021/07/14 03:26:13;;;;;;;3.83;3.45;;;14.70;99.90;;;;;;4969915;28;20038;-81
2021/07/14 03:29:41;;;;;;;4.53;3.53;;;14.70;99.90;;;;;;4968493;28;20039;-81
2021/07/14 03:32:13;;;;;;;3.80;3.05;;;14.60;99.90;;;;;;4968021;28;20041;-81
2021/07/14 03:35:48;;;;;;;5.75;3.75;;;14.70;99.90;;;;;;4975527;28;20104;-80
2021/07/14 03:38:53;;;;;;;4.18;3.72;;;14.70;99.90;;;;;;4995106;28;20098;-81
2021/07/14 03:41:22;;;;;;;3.42;3.13;;;14.70;99.90;;;;;;4974945;28;20128;-80
2021/07/14 03:44:13;;;;;;;6.28;3.97;;;14.70;99.90;;;;;;4965777;28;20038;-82
2021/07/14 03:46:42;;;;;;;3.80;3.40;;;14.70;99.90;;;;;;4975624;28;20512;-80
2021/07/14 03:49:15;;;;;;;4.20;3.80;;;14.70;99.90;;;;;;4937776;29;20039;-81
2021/07/14 03:51:46;;;;;;;4.93;3.35;;;14.80;99.90;;;;;;4941303;28;20054;-81
2021/07/14 03:54:13;;;;;;;4.20;3.70;;;14.80;99.90;;;;;;4966801;28;20138;-80
2021/07/14 03:56:40;;;;;;;4.63;3.85;;;14.80;99.90;;;;;;4930714;29;20187;-80
2021/07/14 03:59:06;;;;;;;3.63;3.33;;;14.90;99.90;;;;;;4972563;28;20023;-81
2021/07/14 04:01:38;;;;;;;6.75;3.83;;;14.90;99.90;;;;;;4976929;28;20019;-79
2021/07/14 04:04:15;;;;;;;3.60;3.30;;;14.90;99.90;;;;;;4974434;28;20050;-79
2021/07/14 04:06:45;;;;;;;4.60;3.67;;;14.90;99.90;;;;;;4960513;28;20035;-81
2021/07/14 04:09:50;;;;;;;4.97;3.95;;;14.90;99.90;;;;;;4948899;28;20031;-80
2021/07/14 04:12:25;;;;;;;3.60;3.30;;;14.90;99.90;;;;;;4960542;28;20466;-79
2021/07/14 04:14:51;;;;;;;6.53;4.07;;;15.00;99.90;;;;;;4973393;28;20062;-80
2021/07/14 04:17:17;;;;;;;5.53;4.10;;;15.00;99.90;;;;;;4936091;28;20095;-78
2021/07/14 04:19:46;;;;;;;4.43;3.90;;;14.90;99.90;;;;;;4959800;28;20068;-80
2021/07/14 04:22:13;;;;;;;3.90;3.20;;;14.90;99.90;;;;;;4962321;28;20115;-80
2021/07/14 04:24:41;;;;;;;3.33;3.03;;;14.90;99.90;;;;;;4956462;28;20039;-78
2021/07/14 04:27:08;;;;;;;3.60;3.30;;;14.80;99.90;;;;;;4961330;28;20543;-81
2021/07/14 04:29:34;;;;;;;3.50;3.20;;;14.70;99.90;;;;;;4940117;29;20035;-81
2021/07/14 04:32:01;;;;;;;4.72;3.40;;;14.70;99.90;;;;;;4975693;28;20043;-81
2021/07/14 04:34:27;;;;;;;3.22;2.95;;;14.70;99.90;;;;;;4971474;28;20030;-80
2021/07/14 04:36:53;;;;;;;3.50;3.20;;;14.70;99.90;;;;;;4960161;28;20041;-79
2021/07/14 04:39:19;;;;;;;3.40;3.10;;;14.60;99.90;;;;;;4955571;28;20031;-78
2021/07/14 04:41:44;;;;;;;3.42;3.13;;;14.70;99.90;;;;;;4959095;28;20479;-79
2021/07/14 04:44:12;;;;;;;3.55;3.25;;;14.60;99.90;;;;;;4955108;28;20078;-81
2021/07/14 04:46:39;;;;;;;3.45;3.15;;;14.70;99.90;;;;;;4975471;28;20496;-81
2021/07/14 04:49:04;;;;;;;3.20;2.90;;;14.60;99.90;;;;;;4972679;28;20034;-81
2021/07/14 04:51:30;;;;;;;4.60;3.17;;;14.60;99.90;;;;;;4977643;28;20640;-81
2021/07/14 04:54:26;;;;;;;2.92;2.72;;;14.60;99.90;;;;;;4980879;28;20027;-81
2021/07/14 04:56:52;;;;;;;4.85;2.90;;;14.70;99.90;;;;;;4959281;28;20049;-81
2021/07/14 04:59:39;;;;;;;2.70;2.50;;;14.70;99.90;;;;;;4960961;28;20035;-81
2021/07/14 05:02:08;;;;;;;3.03;2.75;;;14.70;99.90;;;;;;4942442;28;20494;-80
2021/07/14 05:04:34;;;;;;;4.55;2.83;;;14.70;99.90;;;;;;4970229;28;20086;-79
2021/07/14 05:07:39;;;;;;;3.20;2.90;;;14.70;99.90;;;;;;4985334;28;20034;-80
2021/07/14 05:10:06;;;;;;;2.90;2.70;;;14.70;99.90;;;;;;4954028;28;20031;-79
2021/07/14 05:12:32;;;;;;;3.30;3.00;;;14.70;99.90;;;;;;4972147;28;20031;-79
2021/07/14 05:15:16;;;;;;;3.50;3.20;;;14.70;99.90;;;;;;4980815;28;20058;-81
2021/07/14 05:17:43;;;;;;;3.25;2.95;;;14.60;99.90;;;;;;4951831;28;20038;-80
2021/07/14 05:20:09;;;;;;;3.47;3.17;;;14.70;99.90;;;;;;4958513;28;20031;-80
2021/07/14 05:22:35;;;;;;;2.95;2.75;;;14.70;99.90;;;;;;4949810;28;20030;-79
2021/07/14 05:25:16;;;;;;;3.72;3.30;;;14.70;99.90;;;;;;4963153;28;20041;-81
2021/07/14 05:28:18;;;;;;;3.38;3.08;;;14.70;99.90;;;;;;4955656;28;20097;-80
2021/07/14 05:31:18;;;;;;;4.32;3.22;;;14.80;99.90;;;;;;4964310;28;20055;-80
2021/07/14 05:34:41;;;;;;;4.38;3.65;;;14.80;99.90;;;;;;4973900;28;20054;-81
2021/07/14 05:37:56;;;;;;;3.65;3.30;;;14.80;99.90;;;;;;4972706;28;20050;-82
2021/07/14 05:40:41;;;;;;;3.40;3.10;;;14.80;99.90;;;;;;4950430;28;20125;-81
2021/07/14 05:43:22;;;;;;;3.33;3.03;;;14.90;99.90;;;;;;4973588;28;20052;-81
2021/07/14 05:45:48;;;;;;;2.88;2.65;;;14.90;99.90;;;;;;4973706;28;20784;-81
2021/07/14 05:48:14;;;;;;;4.38;3.30;;;14.90;99.90;;;;;;4978312;28;20134;-81
2021/07/14 05:50:41;;;;;;;4.20;3.38;;;14.90;99.90;;;;;;4974277;28;20039;-81
2021/07/14 05:53:07;;;;;;;4.78;3.38;;;14.90;99.90;;;;;;4979271;28;20121;-82
2021/07/14 05:55:33;;;;;;;3.22;2.92;;;15.00;99.90;;;;;;4974374;28;20030;-82
2021/07/14 05:57:59;;;;;;;3.58;3.28;;;15.00;99.90;;;;;;4963555;28;20066;-81
2021/07/14 06:00:26;;;;;;;3.70;2.97;;;15.10;99.90;;;;;;4976003;28;20418;-81
2021/07/14 06:02:52;;;;;;;3.22;2.95;;;15.20;99.90;;;;;;4972451;28;20117;-81
2021/07/14 06:05:18;;;;;;;3.47;3.10;;;15.10;99.90;;;;;;4958368;28;20070;-79
2021/07/14 06:07:44;;;;;;;4.47;3.42;;;15.20;99.90;;;;;;4977187;28;20034;-80
2021/07/14 06:10:10;;;;;;;3.03;2.72;;;15.20;99.90;;;;;;4974970;28;20034;-81
2021/07/14 06:12:36;;;;;;;3.33;2.97;;;15.20;99.90;;;;;;4956095;28;20035;-79
2021/07/14 06:15:03;;;;;;;2.83;2.63;;;15.10;99.90;;;;;;4966443;28;20038;-80
2021/07/14 06:17:29;;;;;;;3.40;2.50;;;15.10;99.90;;;;;;4974421;28;20014;-79
2021/07/14 06:20:47;;;;;;;2.95;2.63;;;15.10;99.90;;;;;;4976143;28;20397;-82
2021/07/14 06:23:39;;;;;;;4.28;2.22;;;15.20;99.90;;;;;;4974288;28;20027;-83
2021/07/14 06:26:05;;;;;;;3.05;2.72;;;15.20;99.90;;;;;;4977499;28;20038;-79
2021/07/14 06:28:30;;;;;;;2.50;2.30;;;15.20;99.90;;;;;;4972788;28;20074;-80
2021/07/14 06:30:56;;;;;;;2.97;2.75;;;15.20;99.90;;;;;;4974437;28;20407;-82
2021/07/14 06:33:22;;;;;;;3.05;2.75;;;15.20;99.90;;;;;;4977004;28;20090;-83
2021/07/14 06:35:51;;;;;;;2.35;2.15;;;15.20;99.90;;;;;;4970725;28;20069;-78
2021/07/14 06:38:17;;;;;;;2.60;2.40;;;15.20;99.90;;;;;;4955081;28;20401;-80
2021/07/14 06:40:43;;;;;;;4.45;2.88;;;15.20;99.90;;;;;;4936559;29;20035;-82
2021/07/14 06:43:15;;;;;;;3.63;3.08;;;15.30;99.90;;;;;;4982173;28;20038;-80
2021/07/14 06:46:16;;;;;;;4.43;2.88;;;15.30;99.90;;;;;;4970520;28;20078;-79
2021/07/14 06:48:43;;;;;;;2.80;2.60;;;15.40;99.90;;;;;;4974091;28;20031;-80
2021/07/14 06:51:21;;;;;;;3.03;2.72;;;15.50;99.90;;;;;;4955502;28;20050;-82
2021/07/14 06:53:48;;;;;;;2.67;2.47;;;15.60;99.90;;;;;;4943351;29;20050;-79
2021/07/14 06:56:14;;;;;;;3.33;2.75;;;15.70;99.90;;;;;;4956663;28;20034;-80
2021/07/14 06:58:40;;;;;;;2.97;2.65;;;15.80;99.90;;;;;;4963369;28;20472;-80
2021/07/14 07:01:11;;;;;;;3.10;2.80;;;15.80;99.90;;;;;;4979018;28;20038;-80
2021/07/14 07:03:39;;;;;;;2.58;2.38;;;15.90;99.90;;;;;;4974549;28;20049;-80
2021/07/14 07:06:10;;;;;;;3.03;2.80;;;16.00;99.90;;;;;;4979586;28;20046;-80
2021/07/14 07:08:36;;;;;;;3.85;3.00;;;16.10;99.90;;;;;;4966713;28;20087;-79
2021/07/14 07:11:02;;;;;;;4.13;2.42;;;16.20;99.90;;;;;;4939574;29;20042;-81
2021/07/14 07:13:35;;;;;;;3.58;3.28;;;16.20;99.90;;;;;;4975513;28;20107;-80
2021/07/14 07:16:02;;;;;;;3.08;2.85;;;16.30;99.90;;;;;;4978512;28;20065;-79
2021/07/14 07:18:28;;;;;;;3.15;2.85;;;16.30;99.90;;;;;;4958496;28;20034;-79
2021/07/14 07:20:55;;;;;;;5.43;2.63;;;16.30;99.90;;;;;;4949788;28;20562;-79
2021/07/14 07:23:21;;;;;;;4.70;3.17;;;16.30;99.90;;;;;;4959844;28;20023;-81
2021/07/14 07:25:47;;;;;;;3.20;2.90;;;16.20;99.90;;;;;;4980699;28;20421;-81
2021/07/14 07:28:16;;;;;;;4.18;3.13;;;16.20;99.90;;;;;;4976120;28;20042;-80
2021/07/14 07:30:41;;;;;;;3.63;3.33;;;16.10;99.90;;;;;;4972316;28;20031;-80
2021/07/14 07:33:15;;;;;;;2.90;2.67;;;16.20;99.90;;;;;;4970697;28;20107;-79
2021/07/14 07:35:49;;;;;;;3.72;2.90;;;16.30;99.90;;;;;;4966381;29;20031;-79
2021/07/14 07:38:20;;;;;;;2.60;2.40;;;16.40;99.90;;;;;;4966732;28;20054;-79
2021/07/14 07:40:47;;;;;;;8.02;2.72;;;16.40;99.90;;;;;;4958234;28;20047;-79
2021/07/14 07:43:13;;;;;;;3.25;2.97;;;16.40;99.90;;;;;;4944474;28;20028;-79
2021/07/14 07:45:38;;;;;;;3.85;3.15;;;16.50;99.90;;;;;;4956450;28;20383;-80
2021/07/14 07:48:05;;;;;;;3.47;3.17;;;16.50;99.90;;;;;;4959013;28;20035;-81
2021/07/14 07:50:30;;;;;;;2.80;2.60;;;16.50;99.90;;;;;;4972754;28;20516;-79
2021/07/14 07:52:56;;;;;;;4.30;2.80;;;16.50;99.90;;;;;;4974420;28;20027;-81
2021/07/14 07:55:22;;;;;;;2.63;2.42;;;16.40;99.90;;;;;;4962003;28;20061;-79
2021/07/14 07:57:48;;;;;;;3.13;2.58;;;16.40;99.90;;;;;;4962322;28;20037;-81
2021/07/14 08:00:17;;;;;;;2.65;2.45;;;16.30;99.90;;;;;;4974375;28;20026;-79
2021/07/14 08:02:43;;;;;;;2.88;2.40;;;16.30;99.90;;;;;;4963475;28;20129;-80
2021/07/14 08:05:10;;;;;;;2.72;2.53;;;16.30;99.90;;;;;;4976988;28;20119;-79
2021/07/14 08:07:35;;;;;;;2.50;2.30;;;16.30;99.90;;;;;;4979376;28;20043;-79
2021/07/14 08:10:02;;;;;;;2.47;2.28;;;16.30;99.90;;;;;;4972372;28;20413;-79
2021/07/14 08:12:28;;;;;;;2.42;2.22;;;16.40;99.90;;;;;;4958627;28;20042;-79
2021/07/14 08:14:54;;;;;;;2.47;2.28;;;16.30;99.90;;;;;;4981229;28;20031;-80
2021/07/14 08:17:20;;;;;;;4.78;1.95;;;16.20;99.90;;;;;;4931055;29;20110;-79
2021/07/14 08:19:46;;;;;;;2.80;2.50;;;16.10;99.90;;;;;;4963534;28;20051;-80
2021/07/14 08:22:12;;;;;;;2.10;1.90;;;16.00;99.90;;;;;;4941442;28;20031;-80
2021/07/14 08:24:37;;;;;;;4.05;1.95;;;16.00;99.90;;;;;;4972377;28;20035;-81
2021/07/14 08:27:03;;;;;;;2.25;2.05;;;16.00;99.90;;;;;;4959445;28;20110;-79
2021/07/14 08:29:29;;;;;;;1.90;1.80;;;16.00;99.90;;;;;;4943459;28;20035;-80
2021/07/14 08:31:55;;;;;;;2.60;1.95;;;16.00;99.90;;;;;;4944336;28;20042;-79
2021/07/14 08:34:21;;;;;;;4.60;1.95;;;16.00;99.90;;;;;;4977057;28;20082;-79
2021/07/14 08:36:47;;;;;;;2.10;1.90;;;16.00;99.90;;;;;;4964197;28;20038;-79
2021/07/14 08:39:13;;;;;;;2.42;1.77;;;16.00;99.90;;;;;;4975189;28;20031;-80
2021/07/14 08:41:44;;;;;;;1.50;1.40;;;16.00;99.90;;;;;;4977109;28;20034;-79
2021/07/14 14:43:15;;;;;;;1.33;1.23;;;19.40;99.90;;;;;;4943075;28;20055;-85
2021/07/14 14:45:43;;;;;;;1.50;1.40;;;19.30;99.90;;;;;;4934570;29;20114;-82
2021/07/14 14:48:09;;;;;;;1.52;1.42;;;19.20;99.90;;;;;;4921202;29;20096;-83
2021/07/14 14:50:35;;;;;;;1.70;1.60;;;19.30;99.90;;;;;;4904584;29;20039;-83
2021/07/14 14:53:01;;;;;;;1.83;1.73;;;19.30;99.90;;;;;;4912615;29;20494;-86
2021/07/14 14:55:27;;;;;;;1.40;1.30;;;19.50;99.90;;;;;;4868023;29;20404;-84
2021/07/14 14:57:53;;;;;;;1.48;1.38;;;19.50;99.90;;;;;;4916375;29;20513;-84
2021/07/14 15:00:19;;;;;;;2.80;1.67;;;19.60;99.90;;;;;;4900409;29;20036;-84
2021/07/14 15:02:47;;;;;;;2.15;1.35;;;19.60;99.90;;;;;;4916126;29;20082;-85
2021/07/14 15:05:14;;;;;;;1.85;1.70;;;19.60;99.90;;;;;;4918943;29;20087;-85
2021/07/14 15:07:39;;;;;;;1.50;1.40;;;19.60;99.90;;;;;;4919317;29;20046;-84
2021/07/14 15:10:06;;;;;;;1.23;1.13;;;19.50;99.90;;;;;;4925812;29;20032;-85
2021/07/14 15:12:32;;;;;;;1.73;1.63;;;19.60;99.90;;;;;;4868925;29;20047;-84
2021/07/14 15:14:58;;;;;;;1.77;1.50;;;19.70;99.90;;;;;;4868742;29;20032;-84
2021/07/14 15:17:24;;;;;;;1.48;1.38;;;19.80;99.90;;;;;;4884819;29;20036;-84
2021/07/14 15:19:50;;;;;;;2.35;2.15;;;19.80;99.90;;;;;;4906188;29;20024;-83
2021/07/14 15:22:18;;;;;;;1.80;1.70;;;19.90;99.90;;;;;;4935035;29;20036;-84
2021/07/14 15:24:47;;;;;;;1.60;1.50;;;20.00;99.90;;;;;;4913927;29;20120;-85
2021/07/14 15:29:57;;;;;;;1.60;1.50;;;20.10;99.90;;;;;;4923147;29;20483;-82
2021/07/14 15:32:23;;;;;;;1.45;1.35;;;20.00;99.90;;;;;;4903335;29;20043;-81
2021/07/14 15:34:49;;;;;;;2.63;1.40;;;20.00;99.90;;;;;;4926133;29;20604;-84
2021/07/14 15:37:15;;;;;;;1.85;1.67;;;20.00;99.90;;;;;;4879070;29;20042;-85
2021/07/14 15:39:41;;;;;;;1.30;1.20;;;20.00;99.90;;;;;;4893238;29;20063;-85
2021/07/14 15:42:07;;;;;;;1.85;1.75;;;20.00;99.90;;;;;;4903227;29;20106;-85
2021/07/14 15:44:34;;;;;;;2.30;1.48;;;20.10;99.90;;;;;;4902271;29;20633;-86
2021/07/14 15:47:00;;;;;;;1.38;1.27;;;20.10;99.90;;;;;;4914024;29;20430;-85
2021/07/14 15:49:26;;;;;;;1.58;1.45;;;20.20;99.90;;;;;;4901470;29;20048;-85
2021/07/14 15:51:52;;;;;;;1.77;1.60;;;20.20;99.90;;;;;;4895777;29;20088;-86
2021/07/14 15:54:18;;;;;;;1.90;1.80;;;20.20;99.90;;;;;;4915150;29;20036;-85
2021/07/14 15:56:43;;;;;;;1.35;1.25;;;20.20;99.90;;;;;;4868700;29;20582;-83
2021/07/14 15:59:09;;;;;;;1.45;1.20;;;20.10;99.90;;;;;;4883706;29;20043;-83
2021/07/14 16:01:35;;;;;;;1.50;1.40;;;20.00;99.90;;;;;;4901727;29;20123;-83
2021/07/14 16:04:01;;;;;;;1.30;1.20;;;20.00;99.90;;;;;;4883613;29;20032;-83
2021/07/14 16:06:27;;;;;;;1.40;1.30;;;20.00;99.90;;;;;;4899931;29;20518;-86
2021/07/14 16:08:53;;;;;;;1.27;1.17;;;20.10;99.90;;;;;;4868135;29;20032;-86
2021/07/14 16:11:19;;;;;;;1.83;1.73;;;20.20;99.90;;;;;;4899613;29;20059;-86
2021/07/14 16:13:45;;;;;;;2.38;1.52;;;20.10;99.90;;;;;;4912541;29;20091;-85
2021/07/14 16:16:11;;;;;;;1.60;1.50;;;20.10;99.90;;;;;;4903751;29;20039;-85
2021/07/14 16:18:37;;;;;;;1.70;1.60;;;20.10;99.90;;;;;;4913114;29;20103;-85
2021/07/14 16:21:04;;;;;;;1.70;1.42;;;20.10;99.90;;;;;;4898703;29;20635;-85
2021/07/14 16:23:30;;;;;;;1.60;1.50;;;20.20;99.90;;;;;;4906772;29;20163;-85
2021/07/14 16:25:57;;;;;;;1.50;1.40;;;20.20;99.90;;;;;;4886959;29;20119;-86
2021/07/14 16:28:24;;;;;;;1.48;1.25;;;20.20;99.90;;;;;;4933988;29;20031;-85
2021/07/14 16:30:50;;;;;;;1.40;1.30;;;20.10;99.90;;;;;;4933265;29;20119;-84
2021/07/14 16:33:15;;;;;;;1.60;1.50;;;20.20;99.90;;;;;;4928060;29;20502;-85
2021/07/14 16:35:42;;;;;;;1.88;1.20;;;20.20;99.90;;;;;;4882932;29;20123;-85
2021/07/14 16:38:09;;;;;;;2.08;1.30;;;20.20;99.90;;;;;;4898796;29;20032;-85
2021/07/14 16:40:35;;;;;;;2.17;1.42;;;20.20;99.90;;;;;;4898253;29;20051;-84
2021/07/14 16:43:01;;;;;;;1.40;1.30;;;20.00;99.90;;;;;;4900759;29;20043;-84
2021/07/14 16:45:27;;;;;;;1.35;1.25;;;20.00;99.90;;;;;;4886792;29;20106;-84
2021/07/14 16:47:53;;;;;;;2.88;1.77;;;19.80;99.90;;;;;;4904558;29;20056;-84
2021/07/14 16:50:19;;;;;;;0.98;0.98;;;19.90;99.90;;;;;;4911360;29;20044;-84
2021/07/14 16:52:45;;;;;;;1.05;1.00;;;19.70;99.90;;;;;;4900884;29;20040;-84
2021/07/14 16:55:12;;;;;;;1.30;1.17;;;19.60;99.90;;;;;;4896760;29;20557;-84
2021/07/14 16:57:42;;;;;;;1.65;1.02;;;19.60;99.90;;;;;;4901810;29;20438;-85
2021/07/14 17:00:10;;;;;;;1.33;1.10;;;19.60;99.90;;;;;;4901204;29;20040;-84
2021/07/14 17:02:36;;;;;;;4.07;1.10;;;19.60;99.90;;;;;;4908492;29;20027;-84
2021/07/14 17:05:03;;;;;;;2.20;1.40;;;19.60;99.90;;;;;;4913655;29;20479;-84
2021/07/14 17:07:29;;;;;;;1.58;1.20;;;19.60;99.90;;;;;;4898250;29;20040;-85
2021/07/14 17:09:55;;;;;;;1.48;1.23;;;19.60;99.90;;;;;;4898298;29;20040;-83
2021/07/14 17:12:20;;;;;;;1.15;0.98;;;19.60;99.90;;;;;;4883229;29;20036;-83
2021/07/14 17:14:46;;;;;;;1.17;1.10;;;19.50;99.90;;;;;;4900990;29;20509;-84
2021/07/14 17:17:12;;;;;;;1.00;1.00;;;19.50;99.90;;;;;;4886453;29;20051;-84
2021/07/14 17:19:38;;;;;;;1.38;0.80;;;19.40;99.90;;;;;;4886040;29;20059;-83
2021/07/14 17:22:04;;;;;;;1.58;0.82;;;19.30;99.90;;;;;;4918375;29;20407;-86
2021/07/14 17:24:30;;;;;;;1.20;1.10;;;19.30;99.90;;;;;;4916990;29;20402;-86
2021/07/14 17:26:56;;;;;;;1.20;1.10;;;19.20;99.90;;;;;;4918849;29;20047;-86
2021/07/14 17:29:22;;;;;;;1.25;1.08;;;19.20;99.90;;;;;;4916757;29;20039;-86
2021/07/14 17:31:48;;;;;;;1.10;1.10;;;19.10;99.90;;;;;;4917263;29;20024;-87
2021/07/14 17:34:14;;;;;;;0.90;0.90;;;19.10;99.90;;;;;;4909275;29;20399;-86
2021/07/14 17:36:40;;;;;;;3.20;1.08;;;19.00;99.90;;;;;;4890670;29;20031;-87
2021/07/14 17:39:12;;;;;;;1.30;1.20;;;19.00;99.90;;;;;;4930908;29;20031;-87
2021/07/14 17:41:38;;;;;;;1.20;1.10;;;19.00;99.90;;;;;;4901585;29;20398;-87
2021/07/14 17:44:10;;;;;;;0.98;0.95;;;19.00;99.90;;;;;;4912649;29;20032;-87
2021/07/14 17:46:42;;;;;;;1.27;1.17;;;18.90;99.90;;;;;;4910571;29;20082;-85
2021/07/14 17:53:40;;;;;;;2.38;1.17;;;19.00;99.90;;;;;;4921952;29;20509;-85
2021/07/14 18:00:43;;;;;;;1.67;1.40;;;19.00;99.90;;;;;;4917664;29;20039;-85
2021/07/14 18:04:10;;;;;;;;;;;;;;;;;;;;;
2021/07/14 18:07:10;;;;;;;1.83;1.00;;;19.00;99.90;;;;;;4920637;29;20044;-87
2021/07/14 18:09:48;;;;;;;3.25;2.08;;;19.00;99.90;;;;;;4912833;29;20056;-85
2021/07/14 18:19:00;;;;;;;6.10;1.90;;;19.00;99.90;;;;;;4914249;29;20118;-86
2021/07/14 18:21:27;;;;;;;3.42;2.67;;;18.80;99.90;;;;;;4914096;29;20075;-85
2021/07/14 18:24:00;;;;;;;1.50;1.40;;;18.60;99.90;;;;;;4904694;29;20454;-85
2021/07/14 18:27:16;;;;;;;1.52;1.42;;;18.60;99.90;;;;;;4913845;29;20525;-84
2021/07/14 18:29:51;;;;;;;1.50;1.40;;;18.60;99.90;;;;;;4914447;29;20517;-85
2021/07/14 18:32:17;;;;;;;3.95;1.40;;;18.60;99.90;;;;;;4912654;29;20032;-86
2021/07/14 18:34:42;;;;;;;2.67;1.73;;;18.60;99.90;;;;;;4890758;29;20035;-85
2021/07/14 18:37:08;;;;;;;1.48;1.35;;;18.60;99.90;;;;;;4897009;29;20032;-85
2021/07/14 18:40:02;;;;;;;1.30;1.20;;;18.60;99.90;;;;;;4885036;29;20392;-85
2021/07/14 18:42:34;;;;;;;1.27;1.17;;;18.60;99.90;;;;;;4935061;29;20044;-85
2021/07/14 18:45:00;;;;;;;1.30;1.20;;;18.60;99.90;;;;;;4970293;23;20050;-85
2021/07/14 18:47:25;;;;;;;1.52;1.17;;;18.50;99.90;;;;;;4920139;29;20040;-85
2021/07/14 18:49:58;;;;;;;1.25;1.20;;;18.50;99.90;;;;;;4932298;29;20039;-85
2021/07/14 18:52:26;;;;;;;1.35;1.25;;;18.40;99.90;;;;;;4929250;29;20047;-85
2021/07/14 18:54:52;;;;;;;1.50;1.40;;;18.40;99.90;;;;;;4926837;29;20051;-86
2021/07/14 18:57:18;;;;;;;1.40;1.30;;;18.40;99.90;;;;;;4924972;29;20390;-85
2021/07/14 18:59:44;;;;;;;1.50;1.40;;;18.30;99.90;;;;;;4911491;29;20059;-85
2021/07/14 19:02:10;;;;;;;2.33;1.10;;;18.30;99.90;;;;;;4908122;29;20100;-88
2021/07/14 19:04:36;;;;;;;1.40;1.30;;;18.20;99.90;;;;;;4904956;29;20182;-85
2021/07/14 19:07:02;;;;;;;1.58;1.48;;;18.20;99.90;;;;;;4922157;29;20087;-85
2021/07/14 19:09:29;;;;;;;1.67;1.58;;;18.10;99.90;;;;;;4905874;29;20032;-85
2021/07/14 19:11:55;;;;;;;1.88;1.70;;;18.00;99.90;;;;;;4918283;29;20072;-85
2021/07/14 19:14:21;;;;;;;1.50;1.40;;;18.00;99.90;;;;;;4913782;29;20036;-86
2021/07/14 19:16:48;;;;;;;1.50;1.40;;;17.90;99.90;;;;;;4918634;29;20078;-86
2021/07/14 19:19:16;;;;;;;1.58;1.48;;;17.80;99.90;;;;;;4928400;29;20498;-87
2021/07/14 19:21:42;;;;;;;1.60;1.50;;;17.80;99.90;;;;;;4923375;29;20027;-86
2021/07/14 19:24:08;;;;;;;1.50;1.40;;;17.70;99.90;;;;;;4915789;29;20032;-86
2021/07/14 19:26:33;;;;;;;1.45;1.35;;;17.70;99.90;;;;;;4917392;29;20482;-85
2021/07/14 19:29:12;;;;;;;;;;;;;;;;;;;;;
2021/07/14 19:31:48;;;;;;;1.77;1.40;;;17.60;99.90;;;;;;4932784;29;20045;-85
2021/07/14 19:34:26;;;;;;;1.85;1.60;;;17.50;99.90;;;;;;4918980;29;20035;-87
2021/07/14 19:36:58;;;;;;;1.73;1.63;;;17.50;99.90;;;;;;4932258;29;20122;-86
2021/07/14 19:39:27;;;;;;;1.40;1.30;;;17.40;99.90;;;;;;4925755;29;20115;-86
2021/07/14 19:42:00;;;;;;;1.70;1.52;;;17.30;99.90;;;;;;4912642;29;20032;-86
2021/07/14 19:44:26;;;;;;;1.60;1.33;;;17.20;99.90;;;;;;4920242;29;20039;-88